Bas Klaassen

Chefscout - Twente
5 Dez 2027
Sonntag
Verarbeitung

Persönlichkeit

Anpassungsfähigkeit (3) Ehrgeiz (5) Kontroverse (5) Loyalität (12) Druck (17) Professionalität (18) Fairness (17) Temperament (15)

Profil

Trainerstil Demokratisch
Lizenz Kontinentale B
Entschlossenheit 6
Menschenführung 11
Motivation 10
Disziplin 13
Arbeitszufriedenheit
100%
Ermüdung
0%
Rolle Chefscout
Gehalt 81.4K p/W
Vertrag 14.03.2030

Leistung

Verhalten Gut
Trainingseffektivität
49%
Spielerentwicklung
50%
Verletzungsprävention
55%
Taktische Umsetzung
50%

Letzte Ereignisse

Spieler begutachtet jetzt
Nahm an einer Scouting-Besprechung teil jetzt
Nahm an einer Scouting-Besprechung teil jetzt
Empfahl ein Transferziel jetzt
Spieler begutachtet jetzt
Spieler begutachtet jetzt
Spieler begutachtet 7T her
Spieler begutachtet 7T her

Aktuell beobachtet

198
Spieler Verein Status Fähigkeit Vertrauen Beobachtet Zuletzt beobachtet Letzte Stimme
Luka Andrade Montevideo City Torque Aktiv 107 / 106 40% 5 04.12.2027 -
Babis Kostoulas Queens Park Rangers Aktiv 141 / 148 40% 1 04.12.2027 -
Ayoub Oufkir AZ Aktiv 136 / 137 40% 4 03.12.2027 -
Joel Ezra Enyimba Aktiv 93 / 94 40% 5 03.12.2027 -
Yang Min-Hyeok Stevenage Aktiv 132 / 136 40% 2 03.12.2027 -
Kees Smit AZ Aktiv 143 / 153 40% 3 02.12.2027 -
Alex Verón Vélez Aktiv 114 / 124 40% 6 02.12.2027 -
Musa Malik Ikorodu City Aktiv 100 / 101 40% 2 02.12.2027 -
Givairo Read Feyenoord Aktiv 143 / 155 40% 7 30.11.2027 -
Rayane Bounida De Graafschap Aktiv 136 / 137 40% 5 30.11.2027 -
Axel Doku KV Oostende Aktiv 132 / 137 40% 10 29.11.2027 -
Gideon Manaseh Ikorodu City Aktiv 86 / 99 40% 3 29.11.2027 -
Jan Virgili Club Brugge Aktiv 139 / 136 40% 6 28.11.2027 -
Emiliano Zambrano Gimnasia y Esgrima Aktiv 93 / 96 40% 5 28.11.2027 -
Luis Otávio FC Dallas Aktiv 102 / 115 40% 4 27.11.2027 -
Bautista Carboni Defensores Unidos Aktiv 103 / 111 40% 11 26.11.2027 -
Othniël Raterink Cagliari Aktiv 118 / 119 40% 2 26.11.2027 -
Lucas Jetten Cambuur Bericht bereit 117 / 130 76% 2 23.11.2027 -
Joel van den Berg Bloemfontein Celtic Aktiv 88 / 104 40% 2 22.11.2027 -
David Martínez Orlando City Aktiv 122 / 128 40% 6 20.11.2027 -
Rivaldo Mouscron Aktiv 137 / 139 40% 2 19.11.2027 -
Amine Boukamir Charleroi Aktiv 110 / 113 40% 4 18.11.2027 -
Bazoumana Touré Ipswich Town Aktiv 146 / 150 40% 3 17.11.2027 -
Shaqueel van Persie Feyenoord Aktiv 118 / 130 40% 1 17.11.2027 -
Oskar Spiten-Nysæter Molde Aktiv 109 / 131 40% 6 16.11.2027 -
Sebastián Ramírez America de Cali Aktiv 112 / 116 40% 3 16.11.2027 -
Tim de Koning Lokeren Aktiv 93 / 104 40% 2 15.11.2027 -
August De Wannemacker Racing Genk Aktiv 100 / 107 40% 1 11.11.2027 -
Bryan Caicedo Leones Aktiv 102 / 106 40% 5 10.11.2027 -
Ruben Ramos LA Galaxy Aktiv 93 / 100 40% 2 09.11.2027 -
Joseph Lucas KAA Gent Aktiv 125 / 134 40% 3 09.11.2027 -
Maren Kefas Plateau United Aktiv 91 / 91 40% 1 08.11.2027 -
Valentino Acuña Newell's Old Boys Aktiv 117 / 117 40% 3 04.11.2027 -
Mateo Peralta Danubio Aktiv 116 / 117 40% 3 01.11.2027 -
Sunday Aniebet Enyimba Aktiv 82 / 92 40% 5 09.10.2027 -
Christ Wawa Helsingborg Aktiv 93 / 111 40% 1 09.10.2027 -
Wisdom Udom Bendel Insurance Aktiv 99 / 93 40% 1 09.10.2027 -
Sadiq Auwal Niger Tornadoes Aktiv 92 / 102 40% 3 08.10.2027 -
Ben Gannon Doak Wrexham Aktiv 143 / 149 40% 2 04.10.2027 -
Pontus Dahbo BK Hacken Aktiv 116 / 126 40% 2 04.10.2027 -
Dylan Salvo Defensores Unidos Aktiv 103 / 102 40% 1 02.10.2027 -
Abubakar Garba Nasarawa United Aktiv 95 / 95 40% 3 25.09.2027 -
Sebastián Arancibia O'Higgins Aktiv 106 / 107 40% 1 23.09.2027 -
Lynden Edhart Hull City Aktiv 109 / 119 40% 2 22.09.2027 -
Pablo Suárez Rentistas Aktiv 104 / 103 40% 2 21.09.2027 -
Giovanni Baroni Talleres Aktiv 113 / 123 40% 1 11.09.2027 -
Pape Diong Westerlo Aktiv 118 / 122 40% 4 08.09.2027 -
Alexis Rodríguez Metropolitanos Aktiv 92 / 95 40% 1 07.09.2027 -
Christ Inao Oulaï Fiorentina Aktiv 138 / 145 40% 1 17.08.2027 -
Leonardo Mendicino Bari Aktiv 122 / 127 40% 1 17.08.2027 -
Jayden Addai Como Aktiv 135 / 138 40% 2 12.08.2027 -
Assane Diao Fiorentina Aktiv 154 / 152 40% 1 12.08.2027 -
Oscar Schwartau Norwich City Aktiv 121 / 132 40% 1 04.08.2027 -
Lennon Miller AC Milan Aktiv 136 / 144 40% 1 04.08.2027 -
Pablo García Racing Santander Aktiv 125 / 132 40% 2 26.07.2027 -
Riley Owen Peterborough United Aktiv 104 / 111 40% 2 26.07.2027 -
Christos Mouzakitis Hull City Aktiv 137 / 138 40% 1 19.07.2027 -
Diogo Guzmán Deportivo La Coruña Aktiv 120 / 124 40% 1 19.07.2027 -
Shea Lacey Hull City Aktiv 125 / 131 40% 1 13.07.2027 -
Harrison Armstrong Hull City Aktiv 129 / 137 40% 1 13.07.2027 -
Mamadou Diakhon Club Brugge Aktiv 126 / 125 40% 1 08.07.2027 -
Rhys Chadwick Burton Albion Aktiv 94 / 106 40% 1 28.06.2027 -
Jesús Rodríguez Como Aktiv 150 / 150 40% 1 28.06.2027 -
Yassine Khalifi Charleroi Aktiv 106 / 111 40% 2 16.06.2027 -
Geovany Quenda Chelsea Aktiv 142 / 148 40% 1 16.06.2027 -
Buba Sangaré Gijón Aktiv 120 / 132 40% 1 07.06.2027 -
Ismaël Baouf Cambuur Aktiv 113 / 123 40% 1 07.06.2027 -
Thiago Almada Liverpool Bericht bereit 145 / 146 69% 1 01.06.2027 -
Kota Tawaratsumida Gamba Osaka Verhandlung 133 / 136 66% 1 01.06.2027 -
Yoann Cathline Utrecht Bericht bereit 136 / 132 72% 1 01.06.2027 -
Luther Kekana SuperSport United Aktiv 103 / 111 40% 1 31.05.2027 -
Quinten Timber Crystal Palace Aktiv 157 / 154 40% 14 30.05.2027 -
Adrià Altimira Deportivo La Coruña Aktiv 139 / 129 40% 2 30.05.2027 -
Kristoffer Lund Birmingham Aktiv 133 / 125 40% 1 30.05.2027 -
Milan van Ewijk Coventry City Aktiv 131 / 129 40% 9 29.05.2027 -
Jordan Teze Monaco Aktiv 139 / 134 40% 7 29.05.2027 -
Sepp van den Berg Brentford Aktiv 150 / 146 40% 11 25.05.2027 -
Jacob Greaves Ipswich Town Aktiv 136 / 135 40% 4 25.05.2027 -
Welington Southampton Aktiv 131 / 128 40% 1 24.05.2027 -
Matisse Samoise KAA Gent Aktiv 121 / 127 40% 6 23.05.2027 -
Issa Kaboré Wrexham Aktiv 127 / 132 40% 5 23.05.2027 -
Alex Scott Bournemouth Aktiv 150 / 155 40% 1 23.05.2027 -
Bobby Thomas Coventry City Aktiv 138 / 129 40% 1 22.05.2027 -
Florentino Luís Ipswich Town Aktiv 141 / 144 40% 2 21.05.2027 -
Tim Iroegbunam Hull City Aktiv 137 / 139 40% 2 21.05.2027 -
Harrison Burrows Sheffield United Aktiv 133 / 129 40% 1 21.05.2027 -
Jesús Areso Athletic Bilbao Aktiv 144 / 143 40% 5 19.05.2027 -
Adam Wharton Crystal Palace Aktiv 156 / 153 40% 8 19.05.2027 -
Fran García Betis Aktiv 150 / 151 40% 4 19.05.2027 -
Jayden Oosterwolde Fenerbahce Aktiv 134 / 139 40% 7 18.05.2027 -
Ethan Galbraith Swansea City Aktiv 131 / 134 40% 4 18.05.2027 -
Mike Eerdhuijzen KV Mechelen Aktiv 131 / 123 40% 11 17.05.2027 -
Omar El Hilali Espanyol Aktiv 147 / 145 40% 11 16.05.2027 -
Daijiro Chirino Almería Aktiv 138 / 134 40% 1 16.05.2027 -
Carlos Romero Villarreal Aktiv 146 / 147 40% 5 15.05.2027 -
Matteo Dams Club Brugge Aktiv 125 / 134 40% 6 13.05.2027 -
Bjorn Meijer Sampdoria Aktiv 123 / 121 40% 3 13.05.2027 -
Ilaix Moriba Celta Aktiv 147 / 153 40% 1 13.05.2027 -
Zico Buurmeester Leganés Aktiv 120 / 122 40% 1 12.05.2027 -
Brooke Norton-Cuffy Hull City Aktiv 144 / 137 40% 3 11.05.2027 -
Adnan Tielemans Mouscron Aktiv 120 / 126 40% 4 07.05.2027 -
Aiham Ousou Charleroi Aktiv 133 / 130 40% 9 01.05.2027 -
Kenneth Taylor Lazio Aktiv 150 / 147 40% 2 30.04.2027 -
Aaron Hickey Brentford Aktiv 146 / 143 40% 5 26.04.2027 -
Marvin Park Las Palmas Aktiv 126 / 129 40% 1 23.04.2027 -
Freddie Potts Club Brugge Aktiv 128 / 137 40% 8 17.04.2027 -
Ryan Flamingo PSV Aktiv 151 / 150 40% 4 17.04.2027 -
Habib Diarra Sunderland Aktiv 136 / 144 40% 1 16.04.2027 -
Sergi Cardona Villarreal Aktiv 150 / 144 40% 6 15.04.2027 -
Matte Smets Racing Genk Aktiv 124 / 125 40% 6 14.04.2027 -
Mauro Júnior PSV Aktiv 143 / 137 40% 6 12.04.2027 -
Youri Baas Bournemouth Aktiv 146 / 145 40% 5 11.04.2027 -
Ian Maatsen Aston Villa Aktiv 146 / 155 40% 3 07.04.2027 -
Ethan Ampadu Leeds United Aktiv 140 / 143 40% 4 04.04.2027 -
Batista Mendy Feyenoord Aktiv 145 / 140 40% 3 04.04.2027 -
Alonzo Engwanda Utrecht Aktiv 135 / 122 40% 2 04.04.2027 -
Malo Gusto Olympique de Marseille Aktiv 145 / 151 40% 2 02.04.2027 -
Joel Ordóñez Club Brugge Aktiv 130 / 132 40% 5 24.03.2027 -
Ilay Camara Anderlecht Aktiv 127 / 129 40% 4 23.03.2027 -
Juan Gutierrez Veracruz Aktiv 137 / 128 40% 2 18.03.2027 -
Joaquin Seys Club Brugge Aktiv 129 / 127 40% 4 10.03.2027 -
Ki-Jana Hoever Sparta Prague Aktiv 133 / 124 40% 2 08.03.2027 -
Dirk Proper Heerenveen Aktiv 130 / 123 40% 1 04.03.2027 -
Doğucan Haspolat Westerlo Aktiv 128 / 122 40% 2 02.03.2027 -
Kevin Amaro Racing Genk Aktiv 128 / 121 40% 3 27.02.2027 -
Killian Sardella Anderlecht Aktiv 122 / 127 40% 4 26.02.2027 -
José Marsà KV Mechelen Aktiv 130 / 127 40% 1 25.02.2027 -
Luc François Tours Aktiv 166 / 161 40% 3 11.02.2027 -
Ángel Alarcón Utrecht Aktiv 124 / 128 72% 1 25.01.2027 -
José Paradela Aston Villa Aktiv 137 / 137 66% 1 18.01.2027 -
Dango Ouattara Brentford Aktiv 139 / 142 40% 3 01.01.2027 -
Luiz Henrique Flamengo Aktiv 142 / 143 68% 1 01.01.2027 Befürworten
Bitello Alavés Aktiv 135 / 135 68% 1 01.01.2027 -
Danylo Sikan Anderlecht Aktiv 133 / 126 40% 8 29.12.2026 -
Mexx Meerdink Utrecht Aktiv 130 / 137 40% 6 29.12.2026 -
Sorriso Famalicao Aktiv 125 / 126 40% 1 29.12.2026 -
Rafiu Durosinmi Racing Genk Aktiv 130 / 130 40% 8 28.12.2026 -
Nacer Mertens KV Oostende Aktiv 127 / 134 40% 11 28.12.2026 -
Zian Flemming Ipswich Town Aktiv 137 / 130 40% 4 26.12.2026 -
Brynjólfur Willumsson Groningen Aktiv 128 / 116 40% 4 24.12.2026 -
Jakob Napoleon Romsaas Charleroi Aktiv 116 / 121 40% 2 24.12.2026 -
Florián Monzón Atlas Aktiv 127 / 129 40% 3 23.12.2026 -
Diber Cambindo Leon Aktiv 129 / 126 40% 1 23.12.2026 -
Juninho Pumas UNAM Aktiv 135 / 125 40% 8 21.12.2026 -
Kevin Schade Brentford Aktiv 147 / 149 40% 10 21.12.2026 -
Donyell Malen AS Roma Aktiv 145 / 149 40% 12 20.12.2026 -
Charles De Ketelaere Atalanta Aktiv 158 / 155 40% 5 19.12.2026 -
Juan Cruz de los Santos Pacos de Ferreira Aktiv 121 / 120 40% 3 18.12.2026 -
Adriano Bertaccini Anderlecht Aktiv 122 / 123 40% 9 17.12.2026 -
Chukwubuikem Ikwuemesi OH Leuven Aktiv 116 / 119 40% 2 17.12.2026 -
Georginio Rutter Olympique Lyonnais Aktiv 146 / 143 40% 4 15.12.2026 -
Ilyas Ansah Hull City Aktiv 128 / 132 40% 1 12.12.2026 -
Joshua Zirkzee Manchester United Aktiv 139 / 148 40% 10 08.12.2026 -
Roberto Fernández Braga Aktiv 139 / 144 40% 3 08.12.2026 -
Brennan Johnson Everton Aktiv 139 / 145 40% 7 06.12.2026 -
Hugo Cuypers Monterrey Aktiv 124 / 124 40% 4 03.12.2026 -
Nicolas Jackson Aston Villa Aktiv 151 / 147 40% 3 03.12.2026 -
Kelly Saravanan Salford City Aktiv 112 / 116 40% 2 03.12.2026 -
Timo Werner St. Gallen Aktiv 133 / 131 40% 1 03.12.2026 -
Victor Osimhen PSV Aktiv 168 / 160 40% 7 30.11.2026 -
Tyrese Campbell Sheffield United Aktiv 123 / 130 40% 2 30.11.2026 -
Ismaïla Sarr Crystal Palace Aktiv 147 / 148 40% 1 29.11.2026 -
Zayd El Kandoussi Mouscron Aktiv 110 / 108 40% 3 28.11.2026 -
Youssef En-Nesyri Al-Ittihad Aktiv 134 / 145 40% 7 25.11.2026 -
Evanilson Bournemouth Aktiv 143 / 147 40% 4 24.11.2026 -
Taty Castellanos West Ham United Aktiv 146 / 148 40% 2 22.11.2026 -
Thierry Ambrose KV Kortrijk Aktiv 131 / 119 40% 5 17.11.2026 -
Yann Leclercq Chamois Niortais Aktiv 162 / 149 40% 3 13.11.2026 -
Michy Courtois KV Oostende Aktiv 139 / 142 40% 2 12.11.2026 -
Reda Khadra Qarabag Aktiv 120 / 137 40% 1 12.11.2026 -
Jean-Philippe Mateta Crystal Palace Aktiv 156 / 146 40% 3 09.11.2026 -
Iliman N'Diaye Derby County Aktiv 158 / 153 40% 1 09.11.2026 -
Kasper Dolberg Ajax Aktiv 137 / 140 40% 4 07.11.2026 -
Jesus Ferreira Seattle Sounders Aktiv 131 / 129 40% 2 29.10.2026 -
Shandre Campbell KV Kortrijk Aktiv 111 / 121 40% 1 26.10.2026 -
Pau Víctor Braga Aktiv 146 / 133 40% 2 24.10.2026 -
Tijjani Noslin Lazio Aktiv 138 / 137 40% 1 07.10.2026 -
Guus Til PSV Aktiv 134 / 138 40% 5 05.10.2026 Beobachten
Thibaud Verlinden OH Leuven Aktiv 126 / 120 40% 1 05.10.2026 -
Ilias Sebaoui Sint-Truiden Aktiv 120 / 126 40% 1 05.10.2026 -
João Félix Ajax Aktiv 156 / 156 40% 2 03.10.2026 -
Duvan Sinisterra Cortulua Aktiv 127 / 122 40% 1 02.10.2026 -
Aune Heggebø West Bromwich Albion Aktiv 132 / 132 40% 1 01.10.2026 -
Tadeo Allende Inter Miami CF Aktiv 110 / 115 40% 1 26.09.2026 -
Kyan Vaesen OH Leuven Aktiv 103 / 115 40% 1 24.09.2026 -
Leonardo Campana New England Revolution Aktiv 129 / 132 40% 1 21.09.2026 -
Nicolás Fernández Belgrano Aktiv 122 / 126 40% 1 18.09.2026 -
Morgan Gibbs-White Nottingham Forest Aktiv 147 / 157 40% 1 18.09.2026 -
Santiago Rodríguez Columbus Crew Aktiv 114 / 121 40% 1 18.09.2026 -
Sam Surridge Nashville SC Aktiv 132 / 139 40% 3 16.09.2026 -
Rafael Navarro St. Louis CITY SC Aktiv 133 / 132 40% 1 14.09.2026 -
Oli McBurnie Hull City Aktiv 135 / 129 40% 2 13.09.2026 -
Dani de Wit Utrecht Aktiv 120 / 120 40% 1 12.09.2026 -
Kévin Denkey FC Cincinnati Aktiv 129 / 132 40% 1 11.09.2026 -
Tomás Chancalay Minnesota United FC Aktiv 120 / 123 40% 1 08.09.2026 -
Noah Okafor Leeds United Aktiv 133 / 137 40% 1 02.09.2026 -
Dodi Lukébakio Benfica Aktiv 147 / 141 40% 1 18.08.2026 -
Kian Fitz-Jim Torino Aktiv 131 / 136 40% 1 01.08.2026 -